Hastings, Nebraska
Current Conditions -  °F | °C
As of 12:53 PM on Tuesday 21 Oct 2014 (Local Time) from KHSI Reporting Station
Clear Clear  
Wind Chill: 74°   Ceiling: Unl
Heat Index: 74°   Visibility: 10mi
Dew Point: 36°   Wind: 15mph
Humidity: 25%   Direction: 170°S
Pressure: 30.06"   Gusts: 25mph
Location:  40.59°N, 98.39°W
Report Text: KHSI 211753Z AUTO 17013G22KT 10SM CLR 23/02 A3006 RMK AO2 SLP169 T02330022 10233 20078 58012
Loading
Personal Weather Stations






























Interactive Weather Map New forecast layout! Learn more

10-Day Weather Forecast

Advertisements
Track Severe Weather on mobile